createdAt,value
2024-02-04T00:02:04.129Z,5.78
2024-02-04T00:04:34.113Z,5.86
2024-02-04T00:07:03.750Z,5.11
2024-02-04T00:09:35.818Z,5.22
2024-02-04T00:12:07.588Z,4.75
2024-02-04T00:14:37.011Z,4.50
2024-02-04T00:17:06.482Z,4.31
2024-02-04T00:19:36.057Z,4.00
2024-02-04T00:22:05.702Z,3.83
2024-02-04T00:24:35.221Z,3.92
2024-02-04T00:27:04.769Z,4.93
2024-02-04T00:29:34.149Z,5.60
2024-02-04T00:32:03.486Z,5.71
2024-02-04T00:34:32.936Z,5.39
2024-02-04T00:37:02.435Z,5.18
2024-02-04T00:39:31.881Z,5.23
2024-02-04T00:42:01.363Z,4.87
2024-02-04T00:44:30.770Z,5.08
2024-02-04T00:47:00.164Z,4.91
2024-02-04T00:49:29.649Z,4.81
2024-02-04T00:51:59.195Z,4.94
2024-02-04T00:54:28.633Z,5.58
2024-02-04T00:56:58.790Z,6.26
2024-02-04T00:59:28.180Z,6.97
2024-02-04T01:01:57.581Z,7.12
2024-02-04T01:04:27.255Z,8.51
2024-02-04T01:07:01.311Z,9.65
2024-02-04T01:09:32.092Z,9.95
2024-02-04T01:12:01.450Z,9.23
2024-02-04T01:14:30.803Z,9.64
2024-02-04T01:17:00.530Z,9.94
2024-02-04T01:19:29.945Z,9.89
2024-02-04T01:21:59.786Z,9.90
2024-02-04T01:24:29.502Z,10.18
2024-02-04T01:26:58.928Z,9.37
2024-02-04T01:29:28.502Z,9.41
2024-02-04T01:31:57.899Z,9.03
2024-02-04T01:34:27.280Z,8.97
2024-02-04T01:36:56.771Z,9.21
2024-02-04T01:39:26.321Z,8.89
2024-02-04T01:41:55.750Z,9.19
2024-02-04T01:44:25.153Z,8.73
2024-02-04T01:46:54.493Z,8.92
2024-02-04T01:49:23.981Z,8.71
2024-02-04T01:51:54.047Z,8.25
2024-02-04T01:54:26.212Z,8.20
2024-02-04T01:56:57.286Z,7.93
2024-02-04T01:59:31.819Z,8.01
2024-02-04T02:02:03.013Z,8.01
2024-02-04T02:04:35.166Z,8.18
2024-02-04T02:07:04.938Z,7.80
2024-02-04T02:09:34.475Z,8.47
2024-02-04T02:12:17.897Z,8.12
2024-02-04T02:14:55.510Z,8.04
2024-02-04T02:17:50.996Z,8.13
2024-02-04T02:20:34.837Z,8.38
2024-02-04T02:23:14.450Z,7.53
2024-02-04T02:25:44.637Z,8.77
2024-02-04T02:28:14.139Z,8.97
2024-02-04T02:30:43.859Z,8.84
2024-02-04T02:33:13.279Z,8.62
2024-02-04T02:35:42.661Z,8.44
2024-02-04T02:38:29.012Z,8.14
2024-02-04T02:41:06.059Z,8.15
2024-02-04T02:43:37.767Z,7.67
2024-02-04T02:46:08.145Z,7.61
2024-02-04T02:48:38.820Z,7.68
2024-02-04T02:51:08.456Z,7.96
2024-02-04T02:53:37.852Z,7.73
2024-02-04T02:56:08.352Z,7.92
2024-02-04T02:58:37.828Z,7.57
2024-02-04T03:01:07.492Z,8.11
2024-02-04T03:03:36.968Z,7.89
2024-02-04T03:06:06.976Z,7.89
2024-02-04T03:08:36.397Z,8.55
2024-02-04T03:11:05.895Z,8.14
2024-02-04T03:13:35.274Z,9.33
2024-02-04T03:16:04.649Z,9.52
2024-02-04T03:18:34.678Z,10.08
2024-02-04T03:21:04.130Z,9.90
2024-02-04T03:23:33.582Z,9.86
2024-02-04T03:26:03.000Z,9.93
2024-02-04T03:28:32.473Z,9.08
2024-02-04T03:31:02.261Z,8.84
2024-02-04T03:33:31.915Z,8.35
2024-02-04T03:36:01.444Z,8.49
2024-02-04T03:38:30.946Z,7.87
2024-02-04T03:41:00.369Z,7.85
2024-02-04T03:43:29.835Z,7.47
2024-02-04T03:45:59.341Z,6.70
2024-02-04T03:48:29.827Z,6.38
2024-02-04T03:50:59.274Z,5.86
2024-02-04T03:53:28.684Z,5.47
2024-02-04T03:55:58.260Z,4.49
2024-02-04T03:58:33.410Z,4.41
2024-02-04T04:01:02.927Z,4.08
2024-02-04T04:03:32.359Z,4.30
2024-02-04T04:06:02.151Z,4.03
2024-02-04T04:08:31.532Z,3.59
2024-02-04T04:11:01.020Z,3.84
2024-02-04T04:13:30.396Z,3.73
2024-02-04T04:15:59.807Z,3.84
2024-02-04T04:18:29.305Z,3.66
2024-02-04T04:20:59.335Z,3.51
2024-02-04T04:23:28.726Z,3.92
2024-02-04T04:25:58.116Z,3.79
2024-02-04T04:28:27.508Z,4.01
2024-02-04T04:30:57.341Z,3.78
2024-02-04T04:33:26.877Z,3.65
2024-02-04T04:35:56.428Z,3.73
2024-02-04T04:38:25.804Z,3.67
2024-02-04T04:40:55.200Z,4.06
2024-02-04T04:43:24.552Z,4.66
2024-02-04T04:45:54.089Z,4.87
2024-02-04T04:48:23.726Z,4.76
2024-02-04T04:50:53.204Z,4.97
2024-02-04T04:53:22.521Z,4.83
2024-02-04T04:55:51.858Z,4.88
2024-02-04T04:58:21.228Z,4.49
2024-02-04T05:00:50.694Z,4.72
2024-02-04T05:03:20.187Z,4.74
2024-02-04T05:05:51.178Z,4.49
2024-02-04T05:08:23.523Z,4.21
2024-02-04T05:10:52.834Z,4.13
2024-02-04T05:13:22.226Z,3.91
2024-02-04T05:15:51.638Z,3.74
2024-02-04T05:18:21.209Z,4.04
2024-02-04T05:20:50.712Z,3.93
2024-02-04T05:23:20.140Z,3.88
2024-02-04T05:25:49.530Z,3.99
2024-02-04T05:28:19.005Z,4.29
2024-02-04T05:30:48.445Z,4.53
2024-02-04T05:33:17.937Z,4.93
2024-02-04T05:35:47.378Z,4.89
2024-02-04T05:38:16.705Z,5.58
2024-02-04T05:40:46.070Z,5.58
2024-02-04T05:43:15.474Z,5.83
2024-02-04T05:45:44.889Z,6.14
2024-02-04T05:48:14.961Z,5.65
2024-02-04T05:50:44.807Z,5.67
2024-02-04T05:53:14.248Z,5.65
2024-02-04T05:55:43.649Z,5.75
2024-02-04T05:58:15.246Z,5.54
2024-02-04T06:00:44.723Z,5.58
2024-02-04T06:03:15.681Z,5.26
2024-02-04T06:05:45.266Z,5.36
2024-02-04T06:08:14.728Z,5.08
2024-02-04T06:10:44.660Z,5.20
2024-02-04T06:13:14.118Z,5.20
2024-02-04T06:15:43.632Z,5.33
2024-02-04T06:18:12.997Z,5.44
2024-02-04T06:20:42.526Z,5.69
2024-02-04T06:23:12.703Z,6.11
2024-02-04T06:25:43.358Z,5.58
2024-02-04T06:28:13.015Z,6.00
2024-02-04T06:30:42.596Z,6.03
2024-02-04T06:33:12.012Z,6.34
2024-02-04T06:35:41.451Z,6.46
2024-02-04T06:38:10.794Z,7.20
2024-02-04T06:40:40.299Z,6.81
2024-02-04T06:43:10.101Z,7.08
2024-02-04T06:45:39.516Z,7.35
2024-02-04T06:48:09.798Z,9.05
2024-02-04T06:50:39.465Z,8.56
2024-02-04T06:53:08.962Z,8.77
2024-02-04T06:55:38.306Z,9.51
2024-02-04T06:58:07.656Z,9.40
2024-02-04T07:00:37.150Z,9.88
2024-02-04T07:03:06.773Z,10.51
2024-02-04T07:05:36.192Z,9.97
2024-02-04T07:08:05.678Z,10.29
2024-02-04T07:10:35.066Z,11.17
2024-02-04T07:13:04.513Z,11.44
2024-02-04T07:15:34.019Z,12.26
2024-02-04T07:18:03.549Z,11.91
2024-02-04T07:20:33.033Z,11.29
2024-02-04T07:23:02.397Z,10.79
2024-02-04T07:25:31.935Z,10.36
2024-02-04T07:28:01.657Z,9.86
2024-02-04T07:30:31.265Z,10.42
2024-02-04T07:33:00.655Z,10.53
2024-02-04T07:35:30.093Z,11.50
2024-02-04T07:37:59.488Z,11.60
2024-02-04T07:40:29.302Z,11.38
2024-02-04T07:42:58.784Z,11.22
2024-02-04T07:45:28.215Z,10.63
2024-02-04T07:47:57.694Z,10.89
2024-02-04T07:50:27.437Z,9.97
2024-02-04T07:52:56.920Z,9.57
2024-02-04T07:55:26.443Z,9.65
2024-02-04T07:57:55.877Z,9.17
2024-02-04T08:00:25.325Z,8.68
2024-02-04T08:02:54.708Z,7.86
2024-02-04T08:05:24.099Z,7.57
2024-02-04T08:07:53.538Z,6.80
2024-02-04T08:10:23.230Z,6.35
2024-02-04T08:12:54.458Z,5.72
2024-02-04T08:15:24.864Z,5.36
2024-02-04T08:17:54.274Z,4.99
2024-02-04T08:20:23.806Z,4.71
2024-02-04T08:22:54.687Z,4.30
2024-02-04T08:25:24.023Z,3.93
2024-02-04T08:27:54.155Z,3.83
2024-02-04T08:30:24.316Z,4.14
2024-02-04T08:32:53.694Z,3.53
2024-02-04T08:35:23.050Z,3.84
2024-02-04T08:37:52.594Z,3.53
2024-02-04T08:40:21.909Z,3.41
2024-02-04T08:42:51.262Z,3.53
2024-02-04T08:45:20.594Z,3.25
2024-02-04T08:47:50.072Z,3.00
2024-02-04T08:50:19.550Z,3.28
2024-02-04T08:52:49.022Z,3.23
2024-02-04T08:55:18.499Z,3.35
2024-02-04T08:57:49.596Z,3.50
2024-02-04T09:00:19.836Z,3.47
2024-02-04T09:02:49.182Z,3.99
2024-02-04T09:05:19.491Z,4.48
2024-02-04T09:07:49.165Z,4.88
2024-02-04T09:10:18.641Z,5.35
2024-02-04T09:12:48.195Z,6.27
2024-02-04T09:15:18.145Z,6.74
2024-02-04T09:17:47.629Z,6.93
2024-02-04T09:20:17.354Z,6.90
2024-02-04T09:22:46.970Z,6.54
2024-02-04T09:25:16.556Z,6.52
2024-02-04T09:27:46.185Z,6.46
2024-02-04T09:30:15.836Z,6.21
2024-02-04T09:32:45.440Z,5.18
2024-02-04T09:35:15.092Z,5.00
2024-02-04T09:37:45.364Z,4.43
2024-02-04T09:40:15.398Z,4.29
2024-02-04T09:42:45.530Z,3.66
2024-02-04T09:45:18.618Z,3.31
2024-02-04T09:47:48.505Z,3.38
2024-02-04T09:50:20.933Z,3.53
2024-02-04T09:53:01.737Z,3.29
2024-02-04T09:55:34.159Z,3.00
2024-02-04T09:58:03.616Z,3.06
2024-02-04T10:00:35.859Z,2.82
2024-02-04T10:03:07.970Z,2.91
2024-02-04T10:05:37.352Z,2.88
2024-02-04T10:08:07.552Z,2.96
2024-02-04T10:10:37.578Z,2.75
2024-02-04T10:13:13.187Z,2.62
2024-02-04T10:15:42.783Z,2.46
2024-02-04T10:18:12.332Z,2.37
2024-02-04T10:20:41.835Z,2.28
2024-02-04T10:23:11.170Z,2.53
2024-02-04T10:25:40.589Z,2.35
2024-02-04T10:28:10.572Z,2.38
2024-02-04T10:30:41.194Z,2.19
2024-02-04T10:33:11.143Z,2.21
2024-02-04T10:35:40.560Z,2.16
2024-02-04T10:38:11.393Z,1.88
2024-02-04T10:40:40.681Z,1.78
2024-02-04T10:43:12.975Z,1.76
2024-02-04T10:45:46.107Z,1.58
2024-02-04T10:48:22.422Z,1.43
2024-02-04T10:50:55.950Z,1.27
2024-02-04T10:53:26.660Z,1.23
2024-02-04T10:56:03.983Z,1.30
2024-02-04T10:58:35.441Z,1.40
2024-02-04T11:01:05.296Z,1.07
2024-02-04T11:03:35.909Z,1.03
2024-02-04T11:06:06.111Z,1.07
2024-02-04T11:08:35.935Z,1.18
2024-02-04T11:11:06.269Z,1.19
2024-02-04T11:13:39.041Z,1.15
2024-02-04T11:16:30.210Z,1.27
2024-02-04T11:19:29.439Z,1.15
2024-02-04T11:22:26.611Z,1.19
2024-02-04T11:25:33.788Z,1.14
2024-02-04T11:28:03.701Z,1.02
2024-02-04T11:30:37.721Z,0.88
2024-02-04T11:33:12.897Z,0.88
2024-02-04T11:35:42.510Z,0.99
2024-02-04T11:38:12.694Z,1.10
2024-02-04T11:40:42.902Z,1.31
2024-02-04T11:43:17.140Z,1.40
2024-02-04T11:45:48.340Z,1.71
2024-02-04T11:48:42.350Z,1.56
2024-02-04T11:51:12.366Z,1.81
2024-02-04T11:53:41.786Z,2.05
2024-02-04T11:56:11.327Z,1.99
2024-02-04T11:58:42.567Z,2.11
2024-02-04T12:01:14.759Z,2.20
2024-02-04T12:03:44.482Z,2.24
2024-02-04T12:06:16.782Z,2.24
2024-02-04T12:08:46.339Z,2.31
2024-02-04T12:11:17.018Z,2.43
2024-02-04T12:13:47.526Z,2.47
2024-02-04T12:16:16.974Z,2.43
2024-02-04T12:18:54.227Z,2.18
2024-02-04T12:21:24.559Z,2.39
2024-02-04T12:23:54.749Z,2.36
2024-02-04T12:26:25.523Z,2.35
2024-02-04T12:28:56.349Z,2.40
2024-02-04T12:31:33.022Z,2.03
2024-02-04T12:34:04.791Z,2.09
2024-02-04T12:36:35.769Z,2.11
2024-02-04T12:39:11.220Z,2.13
2024-02-04T12:41:40.642Z,2.12
2024-02-04T12:44:10.184Z,2.19
2024-02-04T12:46:40.800Z,2.04
2024-02-04T12:49:10.866Z,2.19
2024-02-04T12:51:40.363Z,2.21
2024-02-04T12:54:14.581Z,2.29
2024-02-04T12:57:00.200Z,2.03
2024-02-04T12:59:37.830Z,2.10
2024-02-04T13:02:11.487Z,2.11
2024-02-04T13:08:11.594Z,1.92
2024-02-04T13:10:44.009Z,2.19
2024-02-04T13:13:15.058Z,1.83
2024-02-04T13:15:46.308Z,1.98
2024-02-04T13:18:38.915Z,1.89
2024-02-04T13:21:09.975Z,2.09
2024-02-04T13:23:40.465Z,1.87
2024-02-04T13:26:10.326Z,2.00
2024-02-04T13:28:40.713Z,1.83
2024-02-04T13:31:10.869Z,1.89
2024-02-04T13:33:43.764Z,2.00
2024-02-04T13:36:14.741Z,2.00
2024-02-04T13:38:47.182Z,1.86
2024-02-04T13:41:17.542Z,1.85
2024-02-04T13:43:46.926Z,1.97
2024-02-04T13:46:34.441Z,1.88
2024-02-04T13:49:04.729Z,2.19
2024-02-04T13:51:41.491Z,1.97
2024-02-04T13:54:18.051Z,2.00
2024-02-04T13:56:48.356Z,2.31
2024-02-04T13:59:17.755Z,2.54
2024-02-04T14:01:48.366Z,2.65
2024-02-04T14:04:17.864Z,2.34
2024-02-04T14:06:47.251Z,2.95
2024-02-04T14:09:17.636Z,3.47
2024-02-04T14:11:47.042Z,3.65
2024-02-04T14:14:16.921Z,3.98
2024-02-04T14:16:46.302Z,4.04
2024-02-04T14:19:15.867Z,4.43
2024-02-04T14:21:45.284Z,4.36
2024-02-04T14:24:15.107Z,3.84
2024-02-04T14:26:45.250Z,4.09
2024-02-04T14:29:14.582Z,4.04
2024-02-04T14:31:44.674Z,4.15
2024-02-04T14:34:14.134Z,4.13
2024-02-04T14:36:43.648Z,4.19
2024-02-04T14:39:13.032Z,4.27
2024-02-04T14:41:42.369Z,4.26
2024-02-04T14:44:12.162Z,4.20
2024-02-04T14:46:41.983Z,4.07
2024-02-04T14:49:12.035Z,3.96
2024-02-04T14:51:41.865Z,4.25
2024-02-04T14:54:11.246Z,3.51
2024-02-04T14:56:44.818Z,3.41
2024-02-04T14:59:21.817Z,3.55
2024-02-04T15:01:52.868Z,3.48
2024-02-04T15:04:22.377Z,3.39
2024-02-04T15:06:51.936Z,3.29
2024-02-04T15:09:22.057Z,3.57
2024-02-04T15:11:51.721Z,3.54
2024-02-04T15:14:21.084Z,3.70
2024-02-04T15:16:50.546Z,3.29
2024-02-04T15:19:20.305Z,3.40
2024-02-04T15:21:49.958Z,3.31
2024-02-04T15:24:19.778Z,3.08
2024-02-04T15:26:53.593Z,3.14
2024-02-04T15:29:23.108Z,3.07
2024-02-04T15:32:14.237Z,3.44
2024-02-04T15:34:45.479Z,3.28
2024-02-04T15:37:15.566Z,3.15
2024-02-04T15:39:45.079Z,3.26
2024-02-04T15:42:14.431Z,3.35
2024-02-04T15:44:43.835Z,3.32
2024-02-04T15:47:16.113Z,3.40
2024-02-04T15:49:46.112Z,3.22
2024-02-04T15:52:16.269Z,3.19
2024-02-04T15:54:45.947Z,3.66
2024-02-04T15:57:17.078Z,3.86
2024-02-04T15:59:58.396Z,3.63
2024-02-04T16:02:27.792Z,3.35
2024-02-04T16:04:57.330Z,3.00
2024-02-04T16:07:27.636Z,3.60
2024-02-04T16:09:57.191Z,3.56
2024-02-04T16:12:26.671Z,3.51
2024-02-04T16:14:58.341Z,3.82
2024-02-04T16:17:30.907Z,4.04
2024-02-04T16:20:01.800Z,4.19
2024-02-04T16:22:32.327Z,4.49
2024-02-04T16:25:02.014Z,4.13
2024-02-04T16:27:32.442Z,4.40
2024-02-04T16:30:01.837Z,4.89
2024-02-04T16:32:31.134Z,5.12
2024-02-04T16:35:00.871Z,5.02
2024-02-04T16:37:30.306Z,5.15
2024-02-04T16:39:59.827Z,5.62
2024-02-04T16:42:31.638Z,5.60
2024-02-04T16:45:01.020Z,5.50
2024-02-04T16:47:30.448Z,5.71
2024-02-04T16:50:00.181Z,5.38
2024-02-04T16:52:29.632Z,5.51
2024-02-04T16:54:59.277Z,5.59
2024-02-04T16:57:28.698Z,5.34
2024-02-04T16:59:58.048Z,5.63
2024-02-04T17:02:28.739Z,5.24
2024-02-04T17:05:00.911Z,5.66
2024-02-04T17:07:30.393Z,5.74
2024-02-04T17:09:59.928Z,6.11
2024-02-04T17:12:30.626Z,6.00
2024-02-04T17:15:00.311Z,5.66
2024-02-04T17:17:29.711Z,5.69
2024-02-04T17:20:13.014Z,5.31
2024-02-04T17:22:44.761Z,6.13
2024-02-04T17:25:19.629Z,5.95
2024-02-04T17:27:51.746Z,5.55
2024-02-04T17:30:21.394Z,6.46
2024-02-04T17:32:53.924Z,6.52
2024-02-04T17:35:24.458Z,6.60
2024-02-04T17:37:53.999Z,6.73
2024-02-04T17:40:23.565Z,6.73
2024-02-04T17:42:56.612Z,6.29
2024-02-04T17:45:28.301Z,6.35
2024-02-04T17:47:57.926Z,6.62
2024-02-04T17:50:29.003Z,6.60
2024-02-04T17:52:58.372Z,6.81
2024-02-04T17:55:28.080Z,15.50
2024-02-04T17:58:01.147Z,8.75
2024-02-04T18:00:31.271Z,6.77
2024-02-04T18:03:01.137Z,6.12
2024-02-04T18:05:31.213Z,6.83
2024-02-04T18:08:00.788Z,6.51
2024-02-04T18:10:30.406Z,6.31
2024-02-04T18:13:00.646Z,5.84
2024-02-04T18:15:30.044Z,5.82
2024-02-04T18:17:59.534Z,6.97
2024-02-04T18:20:29.210Z,6.75
2024-02-04T18:22:58.539Z,6.67
2024-02-04T18:25:28.451Z,6.48
2024-02-04T18:27:57.853Z,6.32
2024-02-04T18:30:27.690Z,6.62
2024-02-04T18:32:57.189Z,6.07
2024-02-04T18:35:26.768Z,6.48
2024-02-04T18:37:57.234Z,6.17
2024-02-04T18:40:26.748Z,6.23
2024-02-04T18:42:57.659Z,6.09
2024-02-04T18:45:27.048Z,5.58
2024-02-04T18:47:57.163Z,5.26
2024-02-04T18:50:28.277Z,5.48
2024-02-04T18:52:58.433Z,5.66
2024-02-04T18:55:27.875Z,5.71
2024-02-04T18:57:57.397Z,5.46
2024-02-04T19:00:27.044Z,5.72
2024-02-04T19:02:56.474Z,5.43
2024-02-04T19:05:25.903Z,5.32
2024-02-04T19:07:55.344Z,5.40
2024-02-04T19:10:24.756Z,5.54
2024-02-04T19:12:54.263Z,5.94
2024-02-04T19:15:23.629Z,6.64
2024-02-04T19:17:53.008Z,6.53
2024-02-04T19:20:22.354Z,6.24
2024-02-04T19:22:53.503Z,5.59
2024-02-04T19:25:22.946Z,5.76
2024-02-04T19:27:57.540Z,5.47
2024-02-04T19:30:29.234Z,5.39
2024-02-04T19:32:58.841Z,5.24
2024-02-04T19:35:29.887Z,5.33
2024-02-04T19:37:59.838Z,6.37
2024-02-04T19:40:29.973Z,6.33
2024-02-04T19:42:59.320Z,5.60
2024-02-04T19:45:28.790Z,6.04
2024-02-04T19:48:00.318Z,5.82
2024-02-04T19:50:29.638Z,6.01
2024-02-04T19:52:59.044Z,5.90
2024-02-04T19:55:28.391Z,5.58
2024-02-04T19:57:59.785Z,5.64
2024-02-04T20:00:30.844Z,4.91
2024-02-04T20:03:01.078Z,5.08
2024-02-04T20:05:30.369Z,4.78
2024-02-04T20:07:59.817Z,5.63
2024-02-04T20:10:29.277Z,5.14
2024-02-04T20:12:58.671Z,7.08
2024-02-04T20:15:29.578Z,5.15
2024-02-04T20:18:00.126Z,5.76
2024-02-04T20:20:31.259Z,6.27
2024-02-04T20:23:00.670Z,5.44
2024-02-04T20:25:30.158Z,5.38
2024-02-04T20:28:00.269Z,5.65
2024-02-04T20:30:32.208Z,5.59
2024-02-04T20:33:01.655Z,6.15
2024-02-04T20:35:31.075Z,5.94
2024-02-04T20:38:03.337Z,5.81
2024-02-04T20:40:32.692Z,6.29
2024-02-04T20:43:02.038Z,5.93
2024-02-04T20:45:31.652Z,6.66
2024-02-04T20:48:01.147Z,5.79
2024-02-04T20:50:30.680Z,6.58
2024-02-04T20:53:00.886Z,5.89
2024-02-04T20:55:30.493Z,6.03
2024-02-04T20:58:00.338Z,6.39
2024-02-04T21:00:32.707Z,5.93
2024-02-04T21:03:02.182Z,6.59
2024-02-04T21:05:34.884Z,6.53
2024-02-04T21:08:11.191Z,6.64
2024-02-04T21:10:40.558Z,7.49
2024-02-04T21:13:09.903Z,5.99
2024-02-04T21:15:39.290Z,5.60
2024-02-04T21:18:08.753Z,5.49
2024-02-04T21:20:38.530Z,5.50
2024-02-04T21:23:08.283Z,5.59
2024-02-04T21:25:38.159Z,6.45
2024-02-04T21:28:07.713Z,6.05
2024-02-04T21:30:38.288Z,6.10
2024-02-04T21:33:07.720Z,6.23
2024-02-04T21:35:37.145Z,6.20
2024-02-04T21:38:07.504Z,6.10
2024-02-04T21:40:43.452Z,6.05
2024-02-04T21:43:12.898Z,6.14
2024-02-04T21:45:43.192Z,6.03
2024-02-04T21:48:12.829Z,6.48
2024-02-04T21:50:43.066Z,6.53
2024-02-04T21:53:12.411Z,6.19
2024-02-04T21:55:42.152Z,6.39
2024-02-04T21:58:11.590Z,5.93
2024-02-04T22:00:42.624Z,5.83
2024-02-04T22:03:12.120Z,6.03
2024-02-04T22:05:41.552Z,5.25
2024-02-04T22:08:11.126Z,5.30
2024-02-04T22:10:41.098Z,5.69
2024-02-04T22:13:10.826Z,6.85
2024-02-04T22:15:40.195Z,6.74
2024-02-04T22:18:09.656Z,6.29
2024-02-04T22:20:39.051Z,7.15
2024-02-04T22:23:09.181Z,7.89
2024-02-04T22:25:38.563Z,8.00
2024-02-04T22:28:08.125Z,7.48
2024-02-04T22:30:37.467Z,7.07
2024-02-04T22:33:08.848Z,7.39
2024-02-04T22:35:38.936Z,6.80
2024-02-04T22:38:08.306Z,7.38
2024-02-04T22:40:37.853Z,6.77
2024-02-04T22:43:07.401Z,6.46
2024-02-04T22:45:38.075Z,6.95
2024-02-04T22:48:08.139Z,7.83
2024-02-04T22:50:40.482Z,8.09
2024-02-04T22:53:11.025Z,7.97
2024-02-04T22:55:40.720Z,8.14
2024-02-04T22:58:10.178Z,8.38
2024-02-04T23:00:40.038Z,7.31
2024-02-04T23:03:09.714Z,7.69
2024-02-04T23:05:39.540Z,7.81
2024-02-04T23:08:09.116Z,9.03
2024-02-04T23:10:38.580Z,8.59
2024-02-04T23:13:10.309Z,8.34
2024-02-04T23:15:41.183Z,8.80
2024-02-04T23:18:10.577Z,7.74
2024-02-04T23:20:40.025Z,8.33
2024-02-04T23:23:09.355Z,9.52
2024-02-04T23:25:38.705Z,9.70
2024-02-04T23:28:08.164Z,8.66
2024-02-04T23:30:37.558Z,9.53
2024-02-04T23:33:07.133Z,9.16
2024-02-04T23:35:36.524Z,8.53
2024-02-04T23:38:05.998Z,8.56
2024-02-04T23:40:35.425Z,8.11
2024-02-04T23:43:05.098Z,8.08
2024-02-04T23:45:34.527Z,8.78
2024-02-04T23:48:04.103Z,9.13
2024-02-04T23:50:33.467Z,8.68
2024-02-04T23:53:03.990Z,8.84
2024-02-04T23:55:33.268Z,8.98
2024-02-04T23:58:02.664Z,8.10
